BAW496 EGLL-LEPA
Flight info
| Callsign | BAW496 |
|---|---|
| Flight time | N/A |
| Altitude | 35000 |
| Route | MODMI M185 MID L151 SITET UN859 SOPIL DCT BALAN DCT EVPOK DCT NARAK DCT GAI DCT LOMRA DCT ROCAN DCT IBRAP N13 LORES |
| Aircraft | A20N/M-SDE2E3FGHIRWXY/LB1 |
Departure
| Time | 2026-05-06 11:01 |
|---|---|
| Airport | London Heathrow Airport (EGLL) |
Arrival
| Time | N/A |
|---|---|
| Airport | Palma de Mallorca Airport (LEPA) |
| Time | Latitude | Longitude | Altitude | Speed | Heading |
|---|---|---|---|---|---|
| 2026-05-06 08:20 | 51.47329 | -0.48029 | 86 ft | 0 kts | 270° |
| 2026-05-06 10:46 | 51.47329 | -0.48016 | 86 ft | 4 kts | 270° |
| 2026-05-06 10:46 | 51.47329 | -0.47972 | 86 ft | 4 kts | 270° |
| 2026-05-06 10:47 | 51.47329 | -0.47929 | 86 ft | 3 kts | 270° |
| 2026-05-06 10:47 | 51.47331 | -0.47896 | 86 ft | 4 kts | 242° |
| 2026-05-06 10:47 | 51.47349 | -0.47872 | 91 ft | 4 kts | 182° |
| 2026-05-06 10:47 | 51.47372 | -0.47872 | 90 ft | 2 kts | 180° |
| 2026-05-06 10:48 | 51.47373 | -0.47872 | 90 ft | 1 kts | 180° |
| 2026-05-06 10:50 | 51.47366 | -0.47872 | 90 ft | 3 kts | 179° |
| 2026-05-06 10:50 | 51.47329 | -0.47872 | 87 ft | 7 kts | 179° |
| 2026-05-06 10:51 | 51.47272 | -0.47871 | 86 ft | 9 kts | 179° |
| 2026-05-06 10:51 | 51.47213 | -0.47871 | 86 ft | 12 kts | 180° |
| 2026-05-06 10:51 | 51.47131 | -0.47872 | 86 ft | 11 kts | 180° |
| 2026-05-06 10:51 | 51.47061 | -0.47871 | 86 ft | 9 kts | 180° |
| 2026-05-06 10:52 | 51.47000 | -0.47870 | 86 ft | 9 kts | 179° |
| 2026-05-06 10:52 | 51.46940 | -0.47869 | 86 ft | 9 kts | 179° |
| 2026-05-06 10:52 | 51.46872 | -0.47868 | 86 ft | 11 kts | 179° |
| 2026-05-06 10:52 | 51.46807 | -0.47867 | 86 ft | 10 kts | 179° |
| 2026-05-06 10:53 | 51.46751 | -0.47894 | 89 ft | 9 kts | 230° |
| 2026-05-06 10:53 | 51.46744 | -0.47971 | 86 ft | 4 kts | 271° |
| 2026-05-06 10:53 | 51.46744 | -0.48039 | 86 ft | 8 kts | 270° |
| 2026-05-06 10:53 | 51.46744 | -0.48083 | 86 ft | 1 kts | 269° |
| 2026-05-06 10:54 | 51.46744 | -0.48084 | 86 ft | 0 kts | 269° |
| 2026-05-06 10:56 | 51.46744 | -0.48094 | 86 ft | 3 kts | 269° |
| 2026-05-06 10:56 | 51.46743 | -0.48168 | 86 ft | 9 kts | 265° |
| 2026-05-06 10:56 | 51.46694 | -0.48215 | 87 ft | 10 kts | 177° |
| 2026-05-06 10:56 | 51.46657 | -0.48214 | 86 ft | 3 kts | 180° |
| 2026-05-06 10:57 | 51.46634 | -0.48214 | 86 ft | 2 kts | 179° |
| 2026-05-06 10:57 | 51.46616 | -0.48213 | 86 ft | 2 kts | 179° |
| 2026-05-06 10:57 | 51.46605 | -0.48213 | 86 ft | 0 kts | 179° |
| 2026-05-06 10:58 | 51.46581 | -0.48213 | 86 ft | 9 kts | 179° |
| 2026-05-06 10:58 | 51.46515 | -0.48212 | 88 ft | 7 kts | 179° |
| 2026-05-06 10:58 | 51.46481 | -0.48190 | 90 ft | 3 kts | 125° |
| 2026-05-06 10:58 | 51.46479 | -0.48160 | 89 ft | 0 kts | 89° |
| 2026-05-06 10:59 | 51.46479 | -0.48117 | 87 ft | 13 kts | 89° |
| 2026-05-06 11:00 | 51.46479 | -0.47579 | 85 ft | 82 kts | 89° |
| 2026-05-06 11:00 | 51.46484 | -0.46420 | 91 ft | 133 kts | 90° |
| 2026-05-06 11:00 | 51.46492 | -0.45493 | 87 ft | 158 kts | 89° |
| 2026-05-06 11:00 | 51.46441 | -0.43432 | 514 ft | 170 kts | 88° |
| 2026-05-06 11:01 | 51.46428 | -0.41661 | 1200 ft | 166 kts | 90° |
| 2026-05-06 11:01 | 51.46055 | -0.39924 | 1870 ft | 171 kts | 116° |
| 2026-05-06 11:01 | 51.45353 | -0.38333 | 2216 ft | 189 kts | 125° |
| 2026-05-06 11:01 | 51.44230 | -0.36922 | 2597 ft | 213 kts | 151° |
| 2026-05-06 11:02 | 51.42784 | -0.35936 | 2983 ft | 239 kts | 158° |
| 2026-05-06 11:02 | 51.41145 | -0.35093 | 3540 ft | 262 kts | 170° |
| 2026-05-06 11:02 | 51.39300 | -0.35323 | 4117 ft | 279 kts | 201° |
| 2026-05-06 11:02 | 51.37584 | -0.36760 | 4766 ft | 283 kts | 214° |
| 2026-05-06 11:03 | 51.35897 | -0.38394 | 5121 ft | 284 kts | 213° |
| 2026-05-06 11:03 | 51.34188 | -0.39947 | 5387 ft | 283 kts | 211° |
| 2026-05-06 11:03 | 51.32455 | -0.41408 | 5630 ft | 281 kts | 210° |
| 2026-05-06 11:03 | 51.30704 | -0.42816 | 5923 ft | 284 kts | 209° |
| 2026-05-06 11:04 | 51.28938 | -0.44202 | 6875 ft | 281 kts | 209° |
| 2026-05-06 11:04 | 51.27169 | -0.45582 | 7808 ft | 284 kts | 208° |
| 2026-05-06 11:04 | 51.25377 | -0.47002 | 8661 ft | 290 kts | 208° |
| 2026-05-06 11:04 | 51.23519 | -0.48261 | 9107 ft | 299 kts | 194° |
| 2026-05-06 11:05 | 51.21432 | -0.48282 | 9608 ft | 307 kts | 168° |
| 2026-05-06 11:05 | 51.19369 | -0.47471 | 10605 ft | 304 kts | 165° |
| 2026-05-06 11:05 | 51.17285 | -0.46558 | 10979 ft | 327 kts | 165° |
| 2026-05-06 11:05 | 51.15033 | -0.45554 | 11326 ft | 346 kts | 165° |
| 2026-05-06 11:06 | 51.12668 | -0.44497 | 11882 ft | 356 kts | 165° |
| 2026-05-06 11:06 | 51.10266 | -0.43425 | 12712 ft | 359 kts | 165° |
| 2026-05-06 11:06 | 51.07873 | -0.42362 | 13740 ft | 357 kts | 165° |
| 2026-05-06 11:06 | 51.05444 | -0.41283 | 14286 ft | 367 kts | 165° |
| 2026-05-06 11:07 | 51.02983 | -0.40196 | 15063 ft | 367 kts | 165° |
| 2026-05-06 11:07 | 51.00544 | -0.39120 | 15855 ft | 368 kts | 165° |
| 2026-05-06 11:07 | 50.98054 | -0.38022 | 16508 ft | 373 kts | 166° |
| 2026-05-06 11:07 | 50.95614 | -0.36946 | 17039 ft | 380 kts | 166° |
| 2026-05-06 11:08 | 50.92980 | -0.35786 | 17892 ft | 379 kts | 166° |
| 2026-05-06 11:08 | 50.90416 | -0.34658 | 18454 ft | 386 kts | 166° |
| 2026-05-06 11:08 | 50.87821 | -0.33521 | 19035 ft | 388 kts | 166° |
| 2026-05-06 11:08 | 50.85220 | -0.32384 | 19675 ft | 390 kts | 166° |
| 2026-05-06 11:09 | 50.82603 | -0.31241 | 20306 ft | 392 kts | 166° |
| 2026-05-06 11:09 | 50.79959 | -0.30085 | 20838 ft | 395 kts | 166° |
| 2026-05-06 11:09 | 50.77308 | -0.28929 | 21489 ft | 397 kts | 166° |
| 2026-05-06 11:09 | 50.74629 | -0.27761 | 22040 ft | 400 kts | 166° |
| 2026-05-06 11:10 | 50.71990 | -0.26610 | 22596 ft | 404 kts | 166° |
| 2026-05-06 11:10 | 50.69270 | -0.25428 | 23183 ft | 406 kts | 166° |
| 2026-05-06 11:10 | 50.66535 | -0.24239 | 23692 ft | 409 kts | 166° |
| 2026-05-06 11:10 | 50.63780 | -0.23043 | 24166 ft | 411 kts | 166° |
| 2026-05-06 11:11 | 50.61080 | -0.21875 | 24684 ft | 412 kts | 166° |
| 2026-05-06 11:11 | 50.58304 | -0.20673 | 25108 ft | 416 kts | 166° |
| 2026-05-06 11:11 | 50.55506 | -0.19465 | 25549 ft | 418 kts | 166° |
| 2026-05-06 11:11 | 50.52694 | -0.18251 | 25991 ft | 420 kts | 166° |
| 2026-05-06 11:12 | 50.49866 | -0.17031 | 26415 ft | 423 kts | 166° |
| 2026-05-06 11:12 | 50.47014 | -0.15803 | 26830 ft | 425 kts | 166° |
| 2026-05-06 11:12 | 50.44150 | -0.14570 | 27238 ft | 428 kts | 166° |
| 2026-05-06 11:12 | 50.41265 | -0.13331 | 27625 ft | 430 kts | 166° |
| 2026-05-06 11:13 | 50.38376 | -0.12092 | 28017 ft | 432 kts | 166° |
| 2026-05-06 11:13 | 50.35462 | -0.10844 | 28378 ft | 435 kts | 167° |
| 2026-05-06 11:13 | 50.32533 | -0.09592 | 28735 ft | 437 kts | 166° |
| 2026-05-06 11:13 | 50.29592 | -0.08336 | 29091 ft | 439 kts | 166° |
| 2026-05-06 11:14 | 50.26632 | -0.07070 | 29434 ft | 441 kts | 166° |
| 2026-05-06 11:14 | 50.23664 | -0.05805 | 29769 ft | 444 kts | 166° |
| 2026-05-06 11:14 | 50.20670 | -0.04529 | 30097 ft | 446 kts | 166° |
| 2026-05-06 11:14 | 50.17668 | -0.03253 | 30347 ft | 449 kts | 166° |
| 2026-05-06 11:15 | 50.14646 | -0.01972 | 30624 ft | 451 kts | 166° |
| 2026-05-06 11:15 | 50.11611 | -0.00687 | 30906 ft | 453 kts | 165° |
| 2026-05-06 11:15 | 50.08631 | 0.00568 | 31230 ft | 454 kts | 166° |
| 2026-05-06 11:15 | 50.05618 | 0.01775 | 31597 ft | 453 kts | 166° |
| 2026-05-06 11:16 | 50.02558 | 0.02967 | 31993 ft | 453 kts | 166° |
| 2026-05-06 11:16 | 49.99505 | 0.04153 | 32338 ft | 452 kts | 166° |
| 2026-05-06 11:16 | 49.96441 | 0.05347 | 32691 ft | 452 kts | 166° |
| 2026-05-06 11:16 | 49.93392 | 0.06537 | 33002 ft | 452 kts | 166° |
| 2026-05-06 11:17 | 49.90340 | 0.07733 | 33329 ft | 452 kts | 166° |
| 2026-05-06 11:17 | 49.87297 | 0.08925 | 33713 ft | 451 kts | 166° |
| 2026-05-06 11:17 | 49.84254 | 0.10116 | 33986 ft | 451 kts | 166° |
| 2026-05-06 11:17 | 49.81213 | 0.11306 | 34267 ft | 450 kts | 166° |
| 2026-05-06 11:18 | 49.78171 | 0.12494 | 34505 ft | 450 kts | 166° |
| 2026-05-06 11:18 | 49.75138 | 0.13677 | 34748 ft | 450 kts | 166° |
| 2026-05-06 11:18 | 49.72098 | 0.14861 | 34943 ft | 451 kts | 166° |